Time;durP1;ratioP1;P1;durP2;ratioP2;P2;SDS_P1;SDS_P2;PMS_P1;PMS_P2;Temp;Humidity;BMP_temperature;BMP_pressure;BME280_temperature;BME280_humidity;BME280_pressure;Samples;Min_cycle;Max_cycle;Signal;HPM_P1;HPM_P2
2024/01/14 00:00:58;;;;;;;13.43;1.50;;;;;;;1.49;100.00;100658.03;4963597;28;20790;-81
2024/01/14 00:03:24;;;;;;;10.32;1.50;;;;;;;1.43;100.00;100649.16;4925803;28;20046;-80
2024/01/14 00:05:50;;;;;;;10.25;1.20;;;;;;;1.44;100.00;100655.22;4952828;28;20835;-82
2024/01/14 00:08:16;;;;;;;7.70;1.40;;;;;;;1.40;100.00;100656.66;4926189;28;20043;-80
2024/01/14 00:10:41;;;;;;;6.53;1.17;;;;;;;1.36;100.00;100659.75;4943709;28;20038;-82
2024/01/14 00:13:07;;;;;;;9.93;1.30;;;;;;;1.32;100.00;100663.81;4951750;28;20039;-82
2024/01/14 00:15:34;;;;;;;6.07;0.93;;;;;;;1.33;100.00;100643.50;4933327;28;20038;-80
2024/01/14 00:18:02;;;;;;;4.70;1.02;;;;;;;1.32;100.00;100655.09;4967301;28;20079;-82
2024/01/14 00:20:28;;;;;;;12.77;2.28;;;;;;;1.27;100.00;100647.78;5011457;23;20510;-71
2024/01/14 00:22:54;;;;;;;8.63;1.13;;;;;;;1.31;100.00;100651.63;5023930;28;20036;-70
2024/01/14 00:25:21;;;;;;;12.38;1.88;;;;;;;1.33;100.00;100648.78;5026780;28;20037;-71
2024/01/14 00:27:48;;;;;;;11.95;1.60;;;;;;;1.34;100.00;100651.19;5003899;28;20530;-71
2024/01/14 00:30:14;;;;;;;12.38;1.63;;;;;;;1.35;100.00;100658.13;4989843;28;20116;-71
2024/01/14 00:32:39;;;;;;;10.60;1.50;;;;;;;1.34;100.00;100655.66;5027586;28;20510;-71
2024/01/14 00:35:05;;;;;;;13.02;1.48;;;;;;;1.34;100.00;100655.66;5007587;28;20036;-70
2024/01/14 00:37:31;;;;;;;16.25;2.03;;;;;;;1.34;100.00;100661.75;5006904;28;20049;-70
2024/01/14 00:39:57;;;;;;;9.02;1.35;;;;;;;1.38;100.00;100662.16;4995298;28;20509;-71
2024/01/14 00:42:23;;;;;;;11.68;1.92;;;;;;;1.42;100.00;100642.22;5021225;28;20612;-70
2024/01/14 00:44:48;;;;;;;14.82;2.08;;;;;;;1.48;100.00;100648.50;4991591;28;20117;-72
2024/01/14 00:47:14;;;;;;;11.75;2.10;;;;;;;1.54;100.00;100647.66;5007597;28;20410;-71
2024/01/14 00:49:39;;;;;;;18.77;1.70;;;;;;;1.58;100.00;100646.22;5020584;28;20526;-70
2024/01/14 00:52:05;;;;;;;13.48;1.75;;;;;;;1.64;100.00;100643.53;5003963;28;20048;-70
2024/01/14 00:54:31;;;;;;;9.20;1.77;;;;;;;1.68;100.00;100646.53;5006754;28;20068;-71
2024/01/14 00:56:56;;;;;;;10.90;1.77;;;;;;;1.71;100.00;100642.69;5028718;28;20040;-72
2024/01/14 00:59:22;;;;;;;13.80;2.25;;;;;;;1.74;100.00;100645.69;5001345;28;20029;-72
2024/01/14 01:01:48;;;;;;;11.13;1.60;;;;;;;1.77;100.00;100636.56;5021425;28;20041;-72
2024/01/14 01:04:13;;;;;;;10.85;2.35;;;;;;;1.77;100.00;100637.34;5012058;28;20079;-71
2024/01/14 01:06:39;;;;;;;13.35;1.80;;;;;;;1.80;100.00;100631.63;4996062;28;20185;-72
2024/01/14 01:09:05;;;;;;;10.40;1.52;;;;;;;1.80;100.00;100628.19;4992838;28;20506;-72
2024/01/14 01:11:30;;;;;;;13.52;2.08;;;;;;;1.81;100.00;100635.09;5026002;28;20479;-72
2024/01/14 01:13:56;;;;;;;11.18;2.42;;;;;;;1.81;100.00;100638.53;5027916;28;20041;-71
2024/01/14 01:16:22;;;;;;;19.58;1.77;;;;;;;1.81;100.00;100638.53;5003510;28;20034;-71
2024/01/14 01:18:47;;;;;;;10.00;2.00;;;;;;;1.80;100.00;100629.00;5025271;28;20040;-73
2024/01/14 01:21:21;;;;;;;14.52;1.88;;;;;;;1.82;100.00;100624.31;5010992;28;20040;-71
2024/01/14 01:23:46;;;;;;;15.35;1.90;;;;;;;1.79;100.00;100621.28;5000549;28;20040;-71
2024/01/14 01:26:12;;;;;;;18.92;2.45;;;;;;;1.75;100.00;100612.16;4989872;28;20037;-71
2024/01/14 01:28:37;;;;;;;15.35;2.10;;;;;;;1.74;100.00;100611.38;5027108;28;20094;-70
2024/01/14 01:31:03;;;;;;;12.25;1.60;;;;;;;1.73;100.00;100607.13;4992769;28;20066;-71
2024/01/14 01:33:29;;;;;;;16.10;2.03;;;;;;;1.71;100.00;100603.09;5011881;28;20030;-71
2024/01/14 01:35:55;;;;;;;13.95;1.92;;;;;;;1.65;100.00;100612.66;5033234;28;20028;-71
2024/01/14 01:38:20;;;;;;;12.00;2.00;;;;;;;1.63;100.00;100609.44;4989457;28;20060;-71
2024/01/14 01:40:47;;;;;;;16.25;1.90;;;;;;;1.61;100.00;100612.25;5012305;28;20033;-70
2024/01/14 01:43:13;;;;;;;12.35;2.55;;;;;;;1.63;100.00;100612.88;4993125;28;20502;-71
2024/01/14 01:45:39;;;;;;;16.80;1.70;;;;;;;1.63;100.00;100604.16;4992130;28;20033;-71
2024/01/14 01:48:05;;;;;;;11.45;1.55;;;;;;;1.64;100.00;100598.66;5006391;28;20706;-70
2024/01/14 01:50:34;;;;;;;;;;;;;;;1.67;100.00;100615.06;5008845;28;20042;-71
2024/01/14 01:53:00;;;;;;;14.93;1.80;;;;;;;1.64;100.00;100611.03;5010451;28;19931;-70
2024/01/14 01:55:26;;;;;;;16.92;2.45;;;;;;;1.59;100.00;100611.69;5009159;28;20126;-70
2024/01/14 01:57:53;;;;;;;13.93;2.10;;;;;;;1.66;100.00;100613.47;5010969;28;20057;-70
2024/01/14 02:00:19;;;;;;;13.80;2.28;;;;;;;1.66;100.00;100614.28;4973002;28;20037;-69
2024/01/14 02:02:45;;;;;;;10.57;1.80;;;;;;;1.69;100.00;100615.66;5011110;28;20042;-69
2024/01/14 02:05:12;;;;;;;17.00;2.20;;;;;;;1.71;100.00;100625.00;5003238;28;20032;-70
2024/01/14 02:07:39;;;;;;;6.78;1.10;;;;;;;1.65;100.00;100615.31;4994436;28;20103;-69
2024/01/14 02:10:05;;;;;;;6.88;1.45;;;;;;;1.64;100.00;100613.69;5017104;28;20037;-70
2024/01/14 02:12:30;;;;;;;13.57;1.63;;;;;;;1.64;100.00;100611.84;5006681;28;20142;-71
2024/01/14 02:14:56;;;;;;;14.05;1.45;;;;;;;1.63;100.00;100609.44;5004848;28;20065;-71
2024/01/14 02:17:22;;;;;;;10.00;1.85;;;;;;;1.60;100.00;100596.66;5000740;28;20596;-69
2024/01/14 02:19:47;;;;;;;7.93;1.40;;;;;;;1.58;100.00;100596.06;4976649;28;20033;-70
2024/01/14 02:22:24;;;;;;;8.43;1.80;;;;;;;1.52;100.00;100586.34;5008043;28;20040;-71
2024/01/14 02:24:51;;;;;;;5.82;0.95;;;;;;;1.50;100.00;100585.78;5014542;28;20529;-71
2024/01/14 02:27:17;;;;;;;14.52;1.55;;;;;;;1.48;100.00;100582.50;5002119;28;20100;-71
2024/01/14 02:29:44;;;;;;;14.00;1.45;;;;;;;1.46;100.00;100579.28;5021614;28;20045;-70
2024/01/14 02:32:10;;;;;;;5.90;1.10;;;;;;;1.45;100.00;100572.41;5030997;28;20540;-71
2024/01/14 02:34:35;;;;;;;8.13;2.05;;;;;;;1.41;100.00;100576.47;5013325;28;20510;-70
2024/01/14 02:37:02;;;;;;;5.50;1.00;;;;;;;1.35;100.00;100570.22;5016539;28;20139;-71
2024/01/14 02:39:27;;;;;;;;;;;;;;;1.30;100.00;100565.59;4987063;28;20937;-70
2024/01/14 02:41:53;;;;;;;3.42;1.10;;;;;;;1.30;100.00;100570.88;5023263;28;19921;-70
2024/01/14 02:44:19;;;;;;;8.23;1.20;;;;;;;1.25;100.00;100570.69;5020996;28;20931;-70
2024/01/14 02:46:45;;;;;;;6.53;1.35;;;;;;;1.26;100.00;100569.66;4993887;28;20029;-70
2024/01/14 02:49:11;;;;;;;7.85;1.20;;;;;;;1.29;100.00;100560.53;4992973;28;20125;-70
2024/01/14 02:51:36;;;;;;;3.83;1.33;;;;;;;1.29;100.00;100552.63;5021214;28;20055;-71
2024/01/14 02:54:02;;;;;;;10.57;1.35;;;;;;;1.27;100.00;100552.81;5022106;28;20671;-70
2024/01/14 02:56:28;;;;;;;6.35;1.23;;;;;;;1.21;100.00;100551.03;5008370;28;20103;-71
2024/01/14 02:58:54;;;;;;;5.28;1.63;;;;;;;1.18;100.00;100546.19;4988756;28;20087;-71
2024/01/14 03:01:19;;;;;;;6.85;1.10;;;;;;;1.15;100.00;100557.13;5001120;28;20041;-71
2024/01/14 03:03:45;;;;;;;12.23;1.48;;;;;;;1.14;100.00;100547.63;5006053;28;20144;-71
2024/01/14 03:06:12;;;;;;;6.13;1.65;;;;;;;1.15;100.00;100545.78;5008829;28;20099;-71
2024/01/14 03:08:37;;;;;;;9.18;1.80;;;;;;;1.16;100.00;100535.03;4988380;28;20868;-71
2024/01/14 03:11:04;;;;;;;9.38;1.30;;;;;;;1.16;100.00;100536.88;4987951;28;20048;-71
2024/01/14 03:13:30;;;;;;;12.98;2.15;;;;;;;1.13;100.00;100530.19;5021458;28;20033;-71
2024/01/14 03:15:55;;;;;;;13.00;1.67;;;;;;;1.13;100.00;100532.81;5014879;28;20060;-71
2024/01/14 03:18:21;;;;;;;8.25;1.67;;;;;;;1.13;100.00;100535.44;5004095;28;20911;-71
2024/01/14 03:20:47;;;;;;;11.27;2.00;;;;;;;1.12;100.00;100531.19;5026723;28;20075;-71
2024/01/14 03:23:12;;;;;;;7.45;1.85;;;;;;;1.11;100.00;100524.31;4994672;28;20040;-72
2024/01/14 03:25:38;;;;;;;12.60;1.95;;;;;;;1.11;100.00;100529.59;5011569;28;20045;-72
2024/01/14 03:28:04;;;;;;;13.13;1.65;;;;;;;1.09;100.00;100532.44;5008864;28;20040;-70
2024/01/14 03:30:30;;;;;;;12.90;1.92;;;;;;;1.06;100.00;100534.69;5005259;28;20038;-72
2024/01/14 03:32:56;;;;;;;13.93;1.88;;;;;;;1.03;100.00;100533.28;5023440;28;20035;-72
2024/01/14 03:35:22;;;;;;;15.38;2.00;;;;;;;1.05;100.00;100538.34;4982390;28;20033;-72
2024/01/14 03:37:48;;;;;;;16.50;1.65;;;;;;;1.05;100.00;100541.78;5007397;28;20122;-72
2024/01/14 03:40:13;;;;;;;14.27;1.85;;;;;;;1.02;100.00;100547.50;4990048;28;20167;-72
2024/01/14 03:42:39;;;;;;;12.70;2.15;;;;;;;0.96;100.00;100542.25;4988750;28;20041;-72
2024/01/14 03:45:05;;;;;;;15.85;1.67;;;;;;;0.88;100.00;100551.22;5022336;28;20044;-71
2024/01/14 03:47:32;;;;;;;17.27;1.98;;;;;;;0.85;100.00;100548.19;4990758;28;20076;-72
2024/01/14 03:49:57;;;;;;;14.27;2.25;;;;;;;0.85;100.00;100554.28;5006046;28;20041;-71
2024/01/14 03:52:23;;;;;;;12.23;1.52;;;;;;;0.85;100.00;100551.63;4997692;28;20140;-71
2024/01/14 03:54:49;;;;;;;6.55;1.13;;;;;;;0.88;100.00;100553.03;5018216;28;20708;-71
2024/01/14 03:57:15;;;;;;;7.75;1.48;;;;;;;0.92;100.00;100551.59;5007667;28;20134;-72
2024/01/14 03:59:40;;;;;;;8.55;1.83;;;;;;;0.94;100.00;100555.63;5001458;28;20042;-71
2024/01/14 04:02:06;;;;;;;11.10;1.80;;;;;;;1.01;100.00;100555.59;5002143;28;20034;-71
2024/01/14 04:04:32;;;;;;;9.27;1.80;;;;;;;1.04;100.00;100549.91;5015081;28;20084;-71
2024/01/14 04:06:58;;;;;;;12.18;1.42;;;;;;;1.06;100.00;100547.88;5014558;28;20037;-70
2024/01/14 04:09:23;;;;;;;9.38;1.15;;;;;;;1.07;100.00;100541.56;5027253;28;20414;-70
2024/01/14 04:11:49;;;;;;;12.73;1.40;;;;;;;1.10;100.00;100551.72;5008326;28;20040;-71
2024/01/14 04:14:15;;;;;;;10.27;1.45;;;;;;;1.09;100.00;100545.63;5029630;28;20036;-70
2024/01/14 04:16:41;;;;;;;6.60;1.65;;;;;;;1.13;100.00;100550.47;4992202;28;20030;-70
2024/01/14 04:19:07;;;;;;;12.18;1.83;;;;;;;1.15;100.00;100551.88;5013714;28;20116;-71
2024/01/14 04:21:34;;;;;;;8.13;1.42;;;;;;;1.20;100.00;100544.13;4996292;28;20445;-71
2024/01/14 04:24:02;;;;;;;10.38;1.13;;;;;;;1.23;100.00;100548.19;5002416;28;20041;-71
2024/01/14 04:26:28;;;;;;;8.00;1.23;;;;;;;1.24;100.00;100547.16;5027336;28;20037;-70
2024/01/14 04:28:54;;;;;;;10.02;1.60;;;;;;;1.22;100.00;100536.00;5010624;28;20025;-70
2024/01/14 04:31:21;;;;;;;9.18;1.60;;;;;;;1.23;100.00;100543.72;5027893;28;20809;-70
2024/01/14 04:33:48;;;;;;;7.47;1.20;;;;;;;1.24;100.00;100545.34;5029679;28;20048;-71
2024/01/14 04:36:17;;;;;;;7.18;1.50;;;;;;;1.22;100.00;100538.63;5027354;28;20083;-71
2024/01/14 04:38:43;;;;;;;8.40;1.50;;;;;;;1.17;100.00;100535.84;5026460;28;20045;-71
2024/01/14 04:41:09;;;;;;;5.35;1.15;;;;;;;1.14;100.00;100529.16;5011269;28;20079;-70
2024/01/14 04:43:38;;;;;;;11.30;1.58;;;;;;;1.08;100.00;100530.00;5011805;28;20502;-71
2024/01/14 04:46:06;;;;;;;6.70;1.38;;;;;;;1.02;100.00;100534.31;5002496;28;20051;-70
2024/01/14 04:48:32;;;;;;;8.60;1.33;;;;;;;0.99;100.00;100531.28;5008850;28;20745;-70
2024/01/14 04:50:58;;;;;;;8.07;1.10;;;;;;;0.97;100.00;100528.06;5032657;28;20094;-70
2024/01/14 04:53:24;;;;;;;11.40;1.63;;;;;;;0.92;100.00;100526.03;5026513;28;20029;-70
2024/01/14 04:55:50;;;;;;;7.65;1.65;;;;;;;0.94;100.00;100531.09;5024679;28;20156;-70
2024/01/14 04:58:16;;;;;;;6.95;1.20;;;;;;;0.93;100.00;100537.38;5012916;28;20036;-70
2024/01/14 05:00:42;;;;;;;5.32;1.65;;;;;;;0.97;100.00;100533.31;5029575;28;20036;-69
2024/01/14 05:03:08;;;;;;;9.40;1.40;;;;;;;0.97;100.00;100536.78;5007503;28;20084;-71
2024/01/14 05:05:33;;;;;;;9.82;1.08;;;;;;;0.99;100.00;100526.81;5026074;28;20115;-70
2024/01/14 05:07:59;;;;;;;9.80;0.95;;;;;;;1.00;100.00;100523.16;5009873;28;20136;-71
2024/01/14 05:10:25;;;;;;;9.27;0.95;;;;;;;1.00;100.00;100528.41;5011855;28;20406;-72
2024/01/14 05:12:51;;;;;;;6.93;1.33;;;;;;;1.01;100.00;100529.22;5029269;28;20083;-71
2024/01/14 05:15:16;;;;;;;9.98;1.65;;;;;;;1.00;100.00;100533.69;4989454;28;20053;-71
2024/01/14 05:17:42;;;;;;;7.82;1.60;;;;;;;1.00;100.00;100531.06;5008770;28;20041;-71
2024/01/14 05:20:09;;;;;;;7.30;1.00;;;;;;;1.02;100.00;100520.31;5015746;28;20497;-71
2024/01/14 05:22:34;;;;;;;10.90;1.10;;;;;;;1.03;100.00;100525.38;5022368;28;20083;-71
2024/01/14 05:25:00;;;;;;;5.30;0.80;;;;;;;1.07;100.00;100528.38;5023077;28;20033;-71
2024/01/14 05:27:26;;;;;;;8.75;1.30;;;;;;;1.10;100.00;100527.97;5002960;28;20029;-70
2024/01/14 05:29:51;;;;;;;8.85;1.85;;;;;;;1.12;100.00;100520.66;5027789;28;20090;-70
2024/01/14 05:32:17;;;;;;;11.98;1.70;;;;;;;1.15;100.00;100530.75;4991274;28;20054;-71
2024/01/14 05:34:44;;;;;;;8.32;1.75;;;;;;;1.17;100.00;100512.09;5007449;28;20487;-71
2024/01/14 05:37:10;;;;;;;;;;;;;;;1.15;100.00;100520.22;5033057;28;20029;-71
2024/01/14 05:39:36;;;;;;;9.70;1.00;;;;;;;1.17;100.00;100523.47;4995158;28;19955;-71
2024/01/14 05:42:02;;;;;;;13.25;1.88;;;;;;;1.19;100.00;100510.88;5001792;28;20379;-71
2024/01/14 05:44:28;;;;;;;9.68;1.60;;;;;;;1.19;100.00;100520.59;5008686;28;20112;-71
2024/01/14 05:46:54;;;;;;;10.15;2.28;;;;;;;1.22;100.00;100520.16;5012989;28;20116;-70
2024/01/14 05:49:20;;;;;;;9.57;1.60;;;;;;;1.23;100.00;100522.63;4988059;28;20061;-70
2024/01/14 05:51:46;;;;;;;11.32;1.83;;;;;;;1.25;100.00;100520.56;5010804;28;20030;-69
2024/01/14 05:54:12;;;;;;;9.07;1.40;;;;;;;1.27;100.00;100520.34;5028222;28;20048;-69
2024/01/14 05:56:38;;;;;;;7.88;1.42;;;;;;;1.28;100.00;100504.28;5006437;28;20047;-69
2024/01/14 05:59:04;;;;;;;10.32;1.73;;;;;;;1.30;100.00;100512.03;4991421;28;20043;-72
2024/01/14 06:01:30;;;;;;;5.85;1.38;;;;;;;1.32;100.00;100505.50;5012576;28;20076;-71
2024/01/14 06:03:56;;;;;;;10.13;1.88;;;;;;;1.33;100.00;100507.09;5019708;28;20316;-71
2024/01/14 06:06:22;;;;;;;9.65;1.38;;;;;;;1.32;100.00;100508.13;5006875;28;20141;-70
2024/01/14 06:08:47;;;;;;;5.38;1.50;;;;;;;1.34;100.00;100507.91;5003678;28;20061;-70
2024/01/14 06:11:13;;;;;;;10.95;1.33;;;;;;;1.35;100.00;100499.81;5025623;28;20040;-71
2024/01/14 06:13:40;;;;;;;6.47;1.30;;;;;;;1.36;100.00;100496.13;4999567;28;20045;-70
2024/01/14 06:16:05;;;;;;;11.32;1.15;;;;;;;1.34;100.00;100498.16;5024050;28;20026;-71
2024/01/14 06:18:31;;;;;;;9.70;1.45;;;;;;;1.32;100.00;100494.13;5012283;28;20045;-70
2024/01/14 06:21:00;;;;;;;8.00;1.08;;;;;;;1.31;100.00;100487.25;5024994;28;21593;-71
2024/01/14 06:23:26;;;;;;;8.02;1.42;;;;;;;1.27;100.00;100486.84;5012348;28;20463;-71
2024/01/14 06:25:52;;;;;;;7.25;1.38;;;;;;;1.25;100.00;100494.19;5007360;28;20029;-70
2024/01/14 06:28:18;;;;;;;5.47;1.38;;;;;;;1.24;100.00;100487.28;5026172;28;20037;-70
2024/01/14 06:30:43;;;;;;;9.02;1.50;;;;;;;1.24;100.00;100487.28;5029647;28;20068;-71
2024/01/14 06:33:09;;;;;;;8.35;1.50;;;;;;;1.26;100.00;100490.53;5027953;28;20033;-71
2024/01/14 06:35:35;;;;;;;8.13;1.23;;;;;;;1.28;100.00;100480.56;5007529;28;20075;-71
2024/01/14 06:38:01;;;;;;;;;;;;;;;1.27;100.00;100486.06;5008962;28;20035;-71
2024/01/14 06:40:27;;;;;;;6.47;1.13;;;;;;;1.27;100.00;100486.06;5024161;28;19917;-70
2024/01/14 06:42:53;;;;;;;7.15;1.80;;;;;;;1.25;100.00;100488.91;4992719;28;20498;-71
2024/01/14 06:45:19;;;;;;;5.70;1.40;;;;;;;1.24;100.00;100482.03;5007522;28;20041;-71
2024/01/14 06:47:45;;;;;;;10.38;1.30;;;;;;;1.25;100.00;100483.63;4991923;28;20041;-70
2024/01/14 06:50:11;;;;;;;5.75;0.93;;;;;;;1.24;100.00;100479.38;5005410;28;20034;-71
2024/01/14 06:52:37;;;;;;;7.55;0.93;;;;;;;1.27;100.00;100483.41;5004604;28;20052;-71
2024/01/14 06:55:06;;;;;;;11.75;1.35;;;;;;;1.25;100.00;100483.63;5025165;28;20049;-71
2024/01/14 06:57:32;;;;;;;13.73;1.45;;;;;;;1.28;100.00;100488.47;5008801;28;20041;-71
2024/01/14 06:59:59;;;;;;;9.77;1.73;;;;;;;1.28;100.00;100483.19;5006859;28;20486;-71
2024/01/14 07:02:25;;;;;;;11.85;1.55;;;;;;;1.32;100.00;100486.22;5011179;28;20127;-70
2024/01/14 07:04:51;;;;;;;;;;;;;;;1.33;100.00;100488.63;4977793;28;20056;-70
2024/01/14 07:07:17;;;;;;;8.57;1.33;;;;;;;1.35;100.00;100491.88;5009329;28;19916;-68
2024/01/14 07:09:43;;;;;;;7.68;1.20;;;;;;;1.39;100.00;100491.44;5004307;28;20038;-70
2024/01/14 07:12:08;;;;;;;10.05;1.52;;;;;;;1.40;100.00;100490.41;5028361;28;20040;-70
2024/01/14 07:14:34;;;;;;;6.30;1.38;;;;;;;1.38;100.00;100495.91;5026821;28;20564;-70
2024/01/14 07:17:00;;;;;;;14.55;2.03;;;;;;;1.36;100.00;100496.13;5009214;28;20040;-70
2024/01/14 07:19:26;;;;;;;7.35;1.30;;;;;;;1.35;100.00;100493.69;5002439;28;20060;-70
2024/01/14 07:21:51;;;;;;;7.20;1.80;;;;;;;1.34;100.00;100481.53;5009107;28;20087;-70
2024/01/14 07:24:17;;;;;;;8.75;1.70;;;;;;;1.32;100.00;100484.38;5009781;28;20065;-70
2024/01/14 07:26:43;;;;;;;8.27;1.67;;;;;;;1.36;100.00;100490.06;4989278;28;20989;-70
2024/01/14 07:29:08;;;;;;;6.43;1.25;;;;;;;1.34;100.00;100487.59;5009705;28;20075;-71
2024/01/14 07:31:34;;;;;;;11.23;1.83;;;;;;;1.34;100.00;100484.97;4999454;28;20041;-70
2024/01/14 07:34:00;;;;;;;8.80;1.42;;;;;;;1.35;100.00;100499.81;5007827;28;21318;-70
2024/01/14 07:36:26;;;;;;;;;;;;;;;1.38;100.00;100498.56;5011282;28;20029;-70
2024/01/14 07:38:53;;;;;;;7.57;1.98;;;;;;;1.39;100.00;100509.91;5013680;28;20609;-70
2024/01/14 07:41:19;;;;;;;11.20;1.30;;;;;;;1.41;100.00;100502.59;5021978;28;20060;-70
2024/01/14 07:43:45;;;;;;;6.18;1.08;;;;;;;1.41;100.00;100503.41;5009406;28;20119;-70
2024/01/14 07:46:11;;;;;;;12.73;1.17;;;;;;;1.42;100.00;100506.84;5026361;28;20072;-69
2024/01/14 07:48:37;;;;;;;9.48;1.35;;;;;;;1.41;100.00;100502.59;5024863;28;20033;-69
2024/01/14 07:51:03;;;;;;;10.43;1.48;;;;;;;1.41;100.00;100505.22;4980497;28;20061;-70
2024/01/14 07:53:29;;;;;;;7.93;1.52;;;;;;;1.41;100.00;100506.03;4984512;28;20457;-69
2024/01/14 07:55:54;;;;;;;6.72;1.58;;;;;;;1.43;100.00;100506.66;5022407;28;20034;-71
2024/01/14 07:58:21;;;;;;;7.15;1.50;;;;;;;1.46;100.00;100500.13;4986841;28;20045;-70
2024/01/14 08:00:47;;;;;;;9.93;1.08;;;;;;;1.48;100.00;100496.22;5005760;28;20033;-70
2024/01/14 08:03:12;;;;;;;8.95;1.23;;;;;;;1.51;100.00;100497.66;5024625;28;20044;-70
2024/01/14 08:05:38;;;;;;;5.30;1.00;;;;;;;1.51;100.00;100500.28;5017579;28;20762;-69
2024/01/14 08:08:05;;;;;;;10.40;1.67;;;;;;;1.51;100.00;100500.28;5020346;28;20087;-69
2024/01/14 08:10:32;;;;;;;8.98;1.50;;;;;;;1.51;100.00;100487.09;5021852;28;20116;-69
2024/01/14 08:12:57;;;;;;;11.55;2.67;;;;;;;1.51;100.00;100495.00;5007921;28;20536;-71
2024/01/14 08:15:23;;;;;;;7.88;1.30;;;;;;;1.50;100.00;100488.94;5021214;28;20636;-71
2024/01/14 08:17:49;;;;;;;10.30;1.58;;;;;;;1.52;100.00;100496.63;4978335;28;20045;-70
2024/01/14 08:20:14;;;;;;;6.75;1.17;;;;;;;1.51;100.00;100493.19;5010546;28;20106;-70
2024/01/14 08:22:40;;;;;;;7.25;1.35;;;;;;;1.51;100.00;100495.00;5026169;28;20479;-70
2024/01/14 08:25:07;;;;;;;7.80;1.60;;;;;;;1.54;100.00;100497.19;5023929;28;20033;-69
2024/01/14 08:27:33;;;;;;;12.50;1.38;;;;;;;1.54;100.00;100497.19;5003331;28;20104;-68
2024/01/14 08:29:59;;;;;;;5.90;1.60;;;;;;;1.56;100.00;100495.97;5025210;28;20041;-70
2024/01/14 08:32:25;;;;;;;8.63;1.50;;;;;;;1.57;100.00;100491.50;5010594;28;20037;-71
2024/01/14 08:34:51;;;;;;;7.13;1.60;;;;;;;1.60;100.00;100497.16;5024956;28;20025;-71
2024/01/14 08:37:16;;;;;;;8.30;1.20;;;;;;;1.62;100.00;100483.72;5001794;28;20033;-70
2024/01/14 08:39:42;;;;;;;5.82;0.95;;;;;;;1.65;100.00;100485.94;5009869;28;20037;-69
2024/01/14 08:42:08;;;;;;;9.90;1.55;;;;;;;1.66;100.00;100487.56;5005931;28;21672;-69
2024/01/14 08:44:33;;;;;;;8.95;1.20;;;;;;;1.68;100.00;100482.88;4995629;28;20056;-71
2024/01/14 08:46:59;;;;;;;8.02;1.85;;;;;;;1.71;100.00;100492.19;5020105;28;20259;-70
2024/01/14 08:49:29;;;;;;;9.05;1.33;;;;;;;1.73;100.00;100483.03;5016533;28;20026;-70
2024/01/14 08:51:55;;;;;;;5.78;1.10;;;;;;;1.75;100.00;100483.59;4991653;28;20029;-71
2024/01/14 08:54:21;;;;;;;7.45;1.15;;;;;;;1.75;100.00;100490.72;5005347;28;20446;-71
2024/01/14 08:56:47;;;;;;;6.18;1.65;;;;;;;1.78;100.00;100487.66;5029198;28;20036;-70
2024/01/14 08:59:12;;;;;;;8.70;1.30;;;;;;;1.80;100.00;100481.13;5006587;28;20064;-71
2024/01/14 09:01:38;;;;;;;9.50;1.60;;;;;;;1.78;100.00;100485.81;5002942;28;20056;-70
2024/01/14 09:04:04;;;;;;;10.63;2.17;;;;;;;1.81;100.00;100495.94;5023746;28;20516;-70
2024/01/14 09:06:29;;;;;;;6.72;1.33;;;;;;;1.85;100.00;100498.97;5008027;28;20064;-70
2024/01/14 09:08:55;;;;;;;10.93;2.33;;;;;;;1.90;100.00;100492.00;4990423;28;20041;-70
2024/01/14 09:11:21;;;;;;;7.50;1.60;;;;;;;1.92;100.00;100502.34;5023537;28;20424;-70
2024/01/14 09:13:47;;;;;;;7.15;1.55;;;;;;;1.94;100.00;100494.19;5009105;28;20033;-71
2024/01/14 09:16:13;;;;;;;7.32;1.80;;;;;;;1.91;100.00;100488.34;4992627;28;20029;-70
2024/01/14 09:18:38;;;;;;;7.65;1.30;;;;;;;1.90;100.00;100480.66;5025381;28;20099;-71
2024/01/14 09:21:04;;;;;;;9.48;1.70;;;;;;;1.90;100.00;100481.44;5009364;28;20037;-70
2024/01/14 09:23:31;;;;;;;6.25;1.42;;;;;;;1.90;100.00;100476.16;5009599;28;20044;-71
2024/01/14 09:26:00;;;;;;;6.10;1.67;;;;;;;1.88;100.00;100482.69;4986975;28;20041;-70
2024/01/14 09:28:28;;;;;;;10.13;1.65;;;;;;;1.87;100.00;100481.06;5007350;28;20076;-70
2024/01/14 09:30:54;;;;;;;5.65;1.25;;;;;;;1.90;100.00;100489.38;5021763;28;20033;-70
2024/01/14 09:33:20;;;;;;;6.93;1.25;;;;;;;1.92;100.00;100474.09;5023580;28;20044;-71
2024/01/14 09:35:45;;;;;;;7.22;1.60;;;;;;;1.87;100.00;100481.88;5027339;28;20033;-70
2024/01/14 09:38:11;;;;;;;6.57;1.80;;;;;;;1.84;100.00;100482.31;5004394;28;20516;-71
2024/01/14 09:40:37;;;;;;;5.57;1.05;;;;;;;1.79;100.00;100462.88;5005967;28;20138;-69
2024/01/14 09:43:05;;;;;;;8.57;2.00;;;;;;;1.76;100.00;100474.69;5023459;28;20042;-69
2024/01/14 09:45:34;;;;;;;9.63;1.50;;;;;;;1.78;100.00;100472.63;5003529;28;20084;-69
2024/01/14 09:48:00;;;;;;;10.80;1.73;;;;;;;1.81;100.00;100466.09;5020014;28;20038;-71
2024/01/14 09:50:26;;;;;;;9.02;1.35;;;;;;;1.83;100.00;100471.94;5001802;28;20040;-70
2024/01/14 09:52:52;;;;;;;9.32;1.38;;;;;;;1.89;100.00;100468.44;4988421;28;20810;-70
2024/01/14 09:55:18;;;;;;;4.38;1.23;;;;;;;1.92;100.00;100463.53;5018815;28;20549;-71
2024/01/14 09:57:48;;;;;;;10.40;1.38;;;;;;;1.94;100.00;100460.69;5005344;28;20034;-70
2024/01/14 10:00:14;;;;;;;9.43;1.73;;;;;;;1.97;100.00;100468.19;4990664;28;20091;-69
2024/01/14 10:02:40;;;;;;;4.72;1.10;;;;;;;1.99;100.00;100458.19;4987415;28;20041;-69
2024/01/14 10:05:07;;;;;;;8.68;1.58;;;;;;;2.03;100.00;100453.25;5025182;28;20026;-69
2024/01/14 10:07:33;;;;;;;5.88;1.10;;;;;;;2.05;100.00;100448.59;4988085;28;20104;-70
2024/01/14 10:09:59;;;;;;;7.05;1.30;;;;;;;2.08;100.00;100448.13;5025544;28;20057;-69
2024/01/14 10:12:26;;;;;;;7.10;1.20;;;;;;;2.05;100.00;100444.09;5029558;28;20037;-70
2024/01/14 10:14:59;;;;;;;7.22;1.00;;;;;;;2.08;100.00;100440.22;5011509;28;20041;-71
2024/01/14 10:17:25;;;;;;;7.00;1.40;;;;;;;2.08;100.00;100440.22;5007418;28;20055;-70
2024/01/14 10:19:53;;;;;;;8.63;1.48;;;;;;;2.08;100.00;100430.44;5007607;28;20045;-71
2024/01/14 10:22:18;;;;;;;8.90;1.35;;;;;;;2.06;100.00;100431.72;5001661;28;20518;-69
2024/01/14 10:24:55;;;;;;;8.98;1.27;;;;;;;2.03;100.00;100440.88;5016076;28;20088;-69
2024/01/14 10:27:25;;;;;;;5.35;1.50;;;;;;;2.05;100.00;100427.47;4997906;28;20029;-70
2024/01/14 10:29:51;;;;;;;5.10;1.30;;;;;;;2.04;100.00;100425.84;5028981;28;20039;-69
2024/01/14 10:32:20;;;;;;;8.05;1.27;;;;;;;2.00;100.00;100417.53;4992530;28;20053;-70
2024/01/14 10:34:45;;;;;;;7.93;1.33;;;;;;;2.09;100.00;100410.13;5023943;28;20559;-71
2024/01/14 10:37:12;;;;;;;6.25;1.50;;;;;;;2.12;100.00;100410.50;4994104;28;20037;-69
2024/01/14 10:39:40;;;;;;;10.50;1.17;;;;;;;2.26;100.00;100405.84;5004364;28;20632;-71
2024/01/14 10:42:06;;;;;;;9.20;1.90;;;;;;;2.35;100.00;100393.94;5004454;28;20037;-69
2024/01/14 10:44:31;;;;;;;7.35;1.20;;;;;;;2.36;100.00;100400.81;5021653;28;20049;-69
2024/01/14 10:47:02;;;;;;;6.47;1.20;;;;;;;2.37;100.00;100391.91;4973786;28;20048;-73
2024/01/14 10:49:29;;;;;;;10.02;1.77;;;;;;;2.39;100.00;100383.72;5031027;28;20043;-69
2024/01/14 10:52:10;;;;;;;10.27;1.70;;;;;;;2.34;100.00;100371.19;5008154;28;20065;-71
2024/01/14 10:54:42;;;;;;;9.93;1.60;;;;;;;2.35;100.00;100372.78;5019486;28;20538;-70
2024/01/14 10:57:27;;;;;;;9.30;1.65;;;;;;;2.33;100.00;100374.84;5022345;28;20516;-68
2024/01/14 10:59:58;;;;;;;10.45;1.50;;;;;;;2.31;100.00;100365.56;5003946;28;20041;-71
2024/01/14 11:02:27;;;;;;;6.20;1.60;;;;;;;2.31;100.00;100363.72;5006804;28;20068;-71
2024/01/14 11:04:54;;;;;;;5.60;1.30;;;;;;;2.32;100.00;100364.53;5020184;28;20801;-70
2024/01/14 11:07:22;;;;;;;10.65;1.40;;;;;;;2.33;100.00;100364.28;5000512;28;20118;-71
2024/01/14 11:09:49;;;;;;;9.75;1.17;;;;;;;2.35;100.00;100361.41;5007514;28;20037;-70
2024/01/14 11:12:28;;;;;;;5.90;1.75;;;;;;;2.35;100.00;100362.22;5021114;28;20029;-70
2024/01/14 11:15:01;;;;;;;10.77;1.42;;;;;;;2.35;100.00;100351.66;5006399;28;20033;-70
2024/01/14 11:18:01;;;;;;;4.80;1.20;;;;;;;2.32;100.00;100344.19;5020798;28;20406;-68
2024/01/14 11:20:31;;;;;;;5.68;1.17;;;;;;;2.30;100.00;100334.84;5004758;28;20037;-71